sensor_id;sensor_type;location;lat;lon;timestamp;pressure;altitude;pressure_sealevel;temperature;humidity
48824;BME280;34640;53.590;10.054;2023-08-31T00:01:24;100102.91;;;14.70;100.00
48824;BME280;34640;53.590;10.054;2023-08-31T00:04:15;100091.22;;;14.59;100.00
48824;BME280;34640;53.590;10.054;2023-08-31T00:07:09;100093.22;;;14.67;100.00
48824;BME280;34640;53.590;10.054;2023-08-31T00:10:00;100096.31;;;14.54;100.00
48824;BME280;34640;53.590;10.054;2023-08-31T00:12:59;100092.63;;;14.49;100.00
48824;BME280;34640;53.590;10.054;2023-08-31T00:15:57;100096.09;;;14.48;100.00
48824;BME280;34640;53.590;10.054;2023-08-31T00:18:48;100084.09;;;14.55;100.00
48824;BME280;34640;53.590;10.054;2023-08-31T00:21:40;100090.84;;;14.48;100.00
48824;BME280;34640;53.590;10.054;2023-08-31T00:24:39;100100.28;;;14.43;100.00
48824;BME280;34640;53.590;10.054;2023-08-31T00:27:37;100096.88;;;14.46;100.00
48824;BME280;34640;53.590;10.054;2023-08-31T00:30:36;100098.75;;;14.50;100.00
48824;BME280;34640;53.590;10.054;2023-08-31T00:33:34;100101.94;;;14.66;100.00
48824;BME280;34640;53.590;10.054;2023-08-31T00:36:32;100105.94;;;14.55;100.00
48824;BME280;34640;53.590;10.054;2023-08-31T00:39:31;100109.78;;;14.41;100.00
48824;BME280;34640;53.590;10.054;2023-08-31T00:42:25;100097.28;;;14.32;100.00
48824;BME280;34640;53.590;10.054;2023-08-31T00:45:23;100098.84;;;14.27;100.00
48824;BME280;34640;53.590;10.054;2023-08-31T00:48:22;100107.63;;;14.29;100.00
48824;BME280;34640;53.590;10.054;2023-08-31T00:51:19;100101.09;;;14.17;100.00
48824;BME280;34640;53.590;10.054;2023-08-31T00:54:18;100107.69;;;14.05;100.00
48824;BME280;34640;53.590;10.054;2023-08-31T00:57:11;100117.38;;;14.08;100.00
48824;BME280;34640;53.590;10.054;2023-08-31T01:00:11;100114.09;;;14.14;100.00
48824;BME280;34640;53.590;10.054;2023-08-31T01:03:05;100104.19;;;14.05;100.00
48824;BME280;34640;53.590;10.054;2023-08-31T01:06:07;100110.75;;;14.18;100.00
48824;BME280;34640;53.590;10.054;2023-08-31T01:09:11;100098.09;;;14.06;100.00
48824;BME280;34640;53.590;10.054;2023-08-31T01:12:07;100110.53;;;14.12;100.00
48824;BME280;34640;53.590;10.054;2023-08-31T01:15:02;100115.94;;;14.16;100.00
48824;BME280;34640;53.590;10.054;2023-08-31T01:17:58;100104.06;;;14.02;100.00
48824;BME280;34640;53.590;10.054;2023-08-31T01:20:52;100112.88;;;14.04;100.00
48824;BME280;34640;53.590;10.054;2023-08-31T01:23:55;100108.25;;;13.97;100.00
48824;BME280;34640;53.590;10.054;2023-08-31T01:26:53;100113.16;;;13.88;100.00
48824;BME280;34640;53.590;10.054;2023-08-31T01:29:51;100117.63;;;13.90;100.00
48824;BME280;34640;53.590;10.054;2023-08-31T01:32:52;100109.88;;;13.93;100.00
48824;BME280;34640;53.590;10.054;2023-08-31T01:35:50;100111.13;;;14.04;100.00
48824;BME280;34640;53.590;10.054;2023-08-31T01:38:50;100113.34;;;13.92;100.00
48824;BME280;34640;53.590;10.054;2023-08-31T01:41:53;100108.31;;;13.98;100.00
48824;BME280;34640;53.590;10.054;2023-08-31T01:44:52;100117.91;;;13.98;100.00
48824;BME280;34640;53.590;10.054;2023-08-31T01:47:50;100121.19;;;13.92;100.00
48824;BME280;34640;53.590;10.054;2023-08-31T01:50:41;100114.97;;;13.89;100.00
48824;BME280;34640;53.590;10.054;2023-08-31T01:53:38;100112.25;;;13.87;100.00
48824;BME280;34640;53.590;10.054;2023-08-31T01:56:37;100112.84;;;13.79;100.00
48824;BME280;34640;53.590;10.054;2023-08-31T01:59:36;100125.88;;;13.77;100.00
48824;BME280;34640;53.590;10.054;2023-08-31T02:02:34;100123.34;;;13.80;100.00
48824;BME280;34640;53.590;10.054;2023-08-31T02:05:31;100120.91;;;13.85;100.00
48824;BME280;34640;53.590;10.054;2023-08-31T02:08:29;100123.75;;;13.91;100.00
48824;BME280;34640;53.590;10.054;2023-08-31T02:11:27;100121.53;;;13.77;100.00
48824;BME280;34640;53.590;10.054;2023-08-31T02:14:19;100112.66;;;13.74;100.00
48824;BME280;34640;53.590;10.054;2023-08-31T02:17:12;100121.16;;;13.67;100.00
48824;BME280;34640;53.590;10.054;2023-08-31T02:20:03;100121.84;;;13.63;100.00
48824;BME280;34640;53.590;10.054;2023-08-31T02:22:56;100120.16;;;13.65;100.00
48824;BME280;34640;53.590;10.054;2023-08-31T02:25:48;100116.38;;;13.57;100.00
48824;BME280;34640;53.590;10.054;2023-08-31T02:28:39;100120.63;;;13.53;100.00
48824;BME280;34640;53.590;10.054;2023-08-31T02:31:37;100122.22;;;13.50;100.00
48824;BME280;34640;53.590;10.054;2023-08-31T02:34:37;100113.03;;;13.37;100.00
48824;BME280;34640;53.590;10.054;2023-08-31T02:37:34;100123.31;;;13.32;100.00
48824;BME280;34640;53.590;10.054;2023-08-31T02:40:33;100118.91;;;13.31;100.00
48824;BME280;34640;53.590;10.054;2023-08-31T02:43:31;100112.69;;;13.28;100.00
48824;BME280;34640;53.590;10.054;2023-08-31T02:46:29;100119.59;;;13.26;100.00
48824;BME280;34640;53.590;10.054;2023-08-31T02:49:28;100122.19;;;13.26;100.00
48824;BME280;34640;53.590;10.054;2023-08-31T02:52:27;100123.09;;;13.26;100.00
48824;BME280;34640;53.590;10.054;2023-08-31T02:55:25;100124.81;;;13.26;100.00
48824;BME280;34640;53.590;10.054;2023-08-31T02:58:16;100125.50;;;13.22;100.00
48824;BME280;34640;53.590;10.054;2023-08-31T03:01:08;100125.38;;;13.19;100.00
48824;BME280;34640;53.590;10.054;2023-08-31T03:04:08;100135.97;;;13.22;100.00
48824;BME280;34640;53.590;10.054;2023-08-31T03:06:59;100138.13;;;13.11;100.00
48824;BME280;34640;53.590;10.054;2023-08-31T03:09:59;100139.09;;;13.13;100.00
48824;BME280;34640;53.590;10.054;2023-08-31T03:12:52;100145.25;;;13.15;100.00
48824;BME280;34640;53.590;10.054;2023-08-31T03:15:43;100137.56;;;13.18;100.00
48824;BME280;34640;53.590;10.054;2023-08-31T03:18:35;100129.00;;;13.22;100.00
48824;BME280;34640;53.590;10.054;2023-08-31T03:21:32;100129.00;;;13.22;100.00
48824;BME280;34640;53.590;10.054;2023-08-31T03:24:31;100136.28;;;13.08;100.00
48824;BME280;34640;53.590;10.054;2023-08-31T03:27:30;100139.56;;;13.03;100.00
48824;BME280;34640;53.590;10.054;2023-08-31T03:30:28;100131.78;;;13.04;100.00
48824;BME280;34640;53.590;10.054;2023-08-31T03:33:25;100139.50;;;13.01;100.00
48824;BME280;34640;53.590;10.054;2023-08-31T03:36:24;100140.03;;;13.15;100.00
48824;BME280;34640;53.590;10.054;2023-08-31T03:39:15;100132.63;;;13.03;100.00
48824;BME280;34640;53.590;10.054;2023-08-31T03:42:06;100137.56;;;12.97;100.00
48824;BME280;34640;53.590;10.054;2023-08-31T03:45:06;100135.84;;;12.98;100.00
48824;BME280;34640;53.590;10.054;2023-08-31T03:47:59;100142.75;;;12.96;100.00
48824;BME280;34640;53.590;10.054;2023-08-31T03:50:56;100138.16;;;12.90;100.00
48824;BME280;34640;53.590;10.054;2023-08-31T03:53:54;100137.34;;;12.91;100.00
48824;BME280;34640;53.590;10.054;2023-08-31T03:56:53;100132.13;;;12.91;100.00
48824;BME280;34640;53.590;10.054;2023-08-31T03:59:50;100136.63;;;12.95;100.00
48824;BME280;34640;53.590;10.054;2023-08-31T04:02:43;100135.97;;;13.01;100.00
48824;BME280;34640;53.590;10.054;2023-08-31T04:05:42;100138.72;;;13.04;100.00
48824;BME280;34640;53.590;10.054;2023-08-31T04:08:39;100128.41;;;13.07;100.00
48824;BME280;34640;53.590;10.054;2023-08-31T04:11:37;100135.91;;;12.99;100.00
48824;BME280;34640;53.590;10.054;2023-08-31T04:14:35;100139.50;;;13.01;100.00
48824;BME280;34640;53.590;10.054;2023-08-31T04:17:27;100136.91;;;13.01;100.00
48824;BME280;34640;53.590;10.054;2023-08-31T04:20:20;100141.97;;;12.98;100.00
48824;BME280;34640;53.590;10.054;2023-08-31T04:23:18;100141.97;;;12.98;100.00
48824;BME280;34640;53.590;10.054;2023-08-31T04:26:17;100137.41;;;12.93;100.00
48824;BME280;34640;53.590;10.054;2023-08-31T04:29:15;100135.56;;;12.90;100.00
48824;BME280;34640;53.590;10.054;2023-08-31T04:32:07;100142.13;;;13.01;100.00
48824;BME280;34640;53.590;10.054;2023-08-31T04:35:05;100143.69;;;12.98;100.00
48824;BME280;34640;53.590;10.054;2023-08-31T04:37:58;100156.47;;;12.90;100.00
48824;BME280;34640;53.590;10.054;2023-08-31T04:40:49;100161.56;;;12.87;100.00
48824;BME280;34640;53.590;10.054;2023-08-31T04:43:48;100165.13;;;12.89;100.00
48824;BME280;34640;53.590;10.054;2023-08-31T04:46:45;100160.75;;;12.88;100.00
48824;BME280;34640;53.590;10.054;2023-08-31T04:49:44;100168.16;;;13.00;100.00
48824;BME280;34640;53.590;10.054;2023-08-31T04:52:41;100174.03;;;12.94;100.00
48824;BME280;34640;53.590;10.054;2023-08-31T04:55:41;100176.59;;;12.93;100.00
48824;BME280;34640;53.590;10.054;2023-08-31T04:58:40;100184.19;;;12.87;100.00
48824;BME280;34640;53.590;10.054;2023-08-31T05:01:37;100191.56;;;12.97;100.00
48824;BME280;34640;53.590;10.054;2023-08-31T05:04:36;100194.63;;;13.07;100.00
48824;BME280;34640;53.590;10.054;2023-08-31T05:07:27;100210.13;;;13.03;100.00
48824;BME280;34640;53.590;10.054;2023-08-31T05:10:18;100209.56;;;13.10;100.00
48824;BME280;34640;53.590;10.054;2023-08-31T05:13:18;100205.16;;;13.09;100.00
48824;BME280;34640;53.590;10.054;2023-08-31T05:16:09;100216.50;;;13.09;100.00
48824;BME280;34640;53.590;10.054;2023-08-31T05:19:00;100212.81;;;13.04;100.00
48824;BME280;34640;53.590;10.054;2023-08-31T05:21:52;100226.13;;;13.10;100.00
48824;BME280;34640;53.590;10.054;2023-08-31T05:24:51;100222.81;;;13.14;100.00
48824;BME280;34640;53.590;10.054;2023-08-31T05:27:48;100223.63;;;13.13;100.00
48824;BME280;34640;53.590;10.054;2023-08-31T05:30:51;100224.84;;;13.22;100.00
48824;BME280;34640;53.590;10.054;2023-08-31T05:33:49;100227.91;;;13.32;100.00
48824;BME280;34640;53.590;10.054;2023-08-31T05:36:46;100235.16;;;13.39;100.00
48824;BME280;34640;53.590;10.054;2023-08-31T05:39:47;100235.66;;;13.52;100.00
48824;BME280;34640;53.590;10.054;2023-08-31T05:42:44;100241.13;;;13.58;100.00
48824;BME280;34640;53.590;10.054;2023-08-31T05:45:42;100235.38;;;13.66;100.00
48824;BME280;34640;53.590;10.054;2023-08-31T05:48:42;100227.59;;;13.68;100.00
48824;BME280;34640;53.590;10.054;2023-08-31T05:51:39;100230.16;;;13.66;100.00
48824;BME280;34640;53.590;10.054;2023-08-31T05:54:37;100226.03;;;13.51;100.00
48824;BME280;34640;53.590;10.054;2023-08-31T05:57:35;100233.78;;;13.70;100.00
48824;BME280;34640;53.590;10.054;2023-08-31T06:00:34;100236.91;;;13.84;100.00
48824;BME280;34640;53.590;10.054;2023-08-31T06:03:32;100238.34;;;13.75;100.00
48824;BME280;34640;53.590;10.054;2023-08-31T06:06:32;100244.69;;;13.82;100.00
48824;BME280;34640;53.590;10.054;2023-08-31T06:09:30;100244.81;;;13.85;100.00
48824;BME280;34640;53.590;10.054;2023-08-31T06:12:21;100238.88;;;13.89;100.00
48824;BME280;34640;53.590;10.054;2023-08-31T06:15:20;100244.50;;;14.00;100.00
48824;BME280;34640;53.590;10.054;2023-08-31T06:18:11;100243.78;;;14.04;100.00
48824;BME280;34640;53.590;10.054;2023-08-31T06:21:02;100241.00;;;13.99;100.00
48824;BME280;34640;53.590;10.054;2023-08-31T06:23:55;100242.31;;;14.11;100.00
48824;BME280;34640;53.590;10.054;2023-08-31T06:26:52;100241.09;;;14.26;100.00
48824;BME280;34640;53.590;10.054;2023-08-31T06:29:46;100254.38;;;14.31;100.00
48824;BME280;34640;53.590;10.054;2023-08-31T06:32:43;100249.97;;;14.30;100.00
48824;BME280;34640;53.590;10.054;2023-08-31T06:35:42;100251.31;;;14.43;100.00
48824;BME280;34640;53.590;10.054;2023-08-31T06:38:39;100245.72;;;14.56;100.00
48824;BME280;34640;53.590;10.054;2023-08-31T06:41:39;100247.59;;;14.60;100.00
48824;BME280;34640;53.590;10.054;2023-08-31T06:44:36;100242.63;;;14.67;100.00
48824;BME280;34640;53.590;10.054;2023-08-31T06:47:34;100246.34;;;14.74;100.00
48824;BME280;34640;53.590;10.054;2023-08-31T06:50:33;100252.50;;;15.00;100.00
48824;BME280;34640;53.590;10.054;2023-08-31T06:53:32;100246.69;;;15.10;100.00
48824;BME280;34640;53.590;10.054;2023-08-31T06:56:30;100254.16;;;14.98;100.00
48824;BME280;34640;53.590;10.054;2023-08-31T06:59:29;100249.78;;;14.97;100.00
48824;BME280;34640;53.590;10.054;2023-08-31T07:02:26;100245.38;;;14.72;100.00
48824;BME280;34640;53.590;10.054;2023-08-31T07:05:25;100241.69;;;14.65;100.00
48824;BME280;34640;53.590;10.054;2023-08-31T07:08:26;100252.66;;;14.79;100.00
48824;BME280;34640;53.590;10.054;2023-08-31T07:11:23;100249.28;;;14.83;100.00
48824;BME280;34640;53.590;10.054;2023-08-31T07:14:16;100251.16;;;14.87;100.00
48824;BME280;34640;53.590;10.054;2023-08-31T07:17:09;100259.78;;;14.83;100.00
48824;BME280;34640;53.590;10.054;2023-08-31T07:20:01;100258.25;;;14.90;100.00
48824;BME280;34640;53.590;10.054;2023-08-31T07:22:55;100256.84;;;15.00;100.00
48824;BME280;34640;53.590;10.054;2023-08-31T07:25:46;100264.50;;;15.19;100.00
48824;BME280;34640;53.590;10.054;2023-08-31T07:28:44;100264.78;;;15.28;100.00
48824;BME280;34640;53.590;10.054;2023-08-31T07:31:43;100247.22;;;15.25;100.00
48824;BME280;34640;53.590;10.054;2023-08-31T07:34:42;100254.88;;;15.46;100.00
48824;BME280;34640;53.590;10.054;2023-08-31T07:37:39;100259.25;;;15.46;100.00
48824;BME280;34640;53.590;10.054;2023-08-31T07:40:38;100252.66;;;15.58;100.00
48824;BME280;34640;53.590;10.054;2023-08-31T07:43:36;100251.75;;;15.85;100.00
48824;BME280;34640;53.590;10.054;2023-08-31T07:46:32;100247.00;;;16.03;100.00
48824;BME280;34640;53.590;10.054;2023-08-31T07:49:30;100254.53;;;16.21;100.00
48824;BME280;34640;53.590;10.054;2023-08-31T07:52:29;100249.00;;;16.42;100.00
48824;BME280;34640;53.590;10.054;2023-08-31T07:55:27;100247.91;;;16.97;100.00
48824;BME280;34640;53.590;10.054;2023-08-31T07:58:18;100240.72;;;17.26;100.00
48824;BME280;34640;53.590;10.054;2023-08-31T08:01:16;100245.03;;;17.22;100.00
48824;BME280;34640;53.590;10.054;2023-08-31T08:04:07;100245.88;;;17.96;100.00
48824;BME280;34640;53.590;10.054;2023-08-31T08:06:59;100248.94;;;17.76;100.00
48824;BME280;34640;53.590;10.054;2023-08-31T08:09:58;100249.81;;;17.38;100.00
48824;BME280;34640;53.590;10.054;2023-08-31T08:12:50;100252.19;;;17.28;100.00
48824;BME280;34640;53.590;10.054;2023-08-31T08:15:42;100259.25;;;17.30;100.00
48824;BME280;34640;53.590;10.054;2023-08-31T08:18:33;100264.16;;;18.28;100.00
48824;BME280;34640;53.590;10.054;2023-08-31T08:21:28;100269.13;;;18.14;100.00
48824;BME280;34640;53.590;10.054;2023-08-31T08:24:20;100268.09;;;17.34;100.00
48824;BME280;34640;53.590;10.054;2023-08-31T08:27:13;100271.91;;;17.10;100.00
48824;BME280;34640;53.590;10.054;2023-08-31T08:30:05;100275.16;;;17.00;100.00
48824;BME280;34640;53.590;10.054;2023-08-31T08:32:56;100274.13;;;16.94;100.00
48824;BME280;34640;53.590;10.054;2023-08-31T08:35:48;100271.16;;;16.82;100.00
48824;BME280;34640;53.590;10.054;2023-08-31T08:38:46;100286.88;;;16.78;100.00
48824;BME280;34640;53.590;10.054;2023-08-31T08:41:37;100271.56;;;16.65;100.00
48824;BME280;34640;53.590;10.054;2023-08-31T08:44:37;100275.16;;;16.67;100.00
48824;BME280;34640;53.590;10.054;2023-08-31T08:47:29;100266.38;;;16.67;100.00
48824;BME280;34640;53.590;10.054;2023-08-31T08:50:20;100272.91;;;16.81;100.00
48824;BME280;34640;53.590;10.054;2023-08-31T08:53:20;100271.59;;;16.97;100.00
48824;BME280;34640;53.590;10.054;2023-08-31T08:56:18;100277.81;;;16.69;100.00
48824;BME280;34640;53.590;10.054;2023-08-31T08:59:16;100277.50;;;16.90;100.00
48824;BME280;34640;53.590;10.054;2023-08-31T09:02:10;100277.00;;;17.03;100.00
48824;BME280;34640;53.590;10.054;2023-08-31T09:05:02;100264.69;;;17.02;100.00
48824;BME280;34640;53.590;10.054;2023-08-31T09:08:03;100282.94;;;16.96;100.00
48824;BME280;34640;53.590;10.054;2023-08-31T09:11:02;100279.94;;;16.82;100.00
48824;BME280;34640;53.590;10.054;2023-08-31T09:14:00;100282.53;;;16.80;100.00
48824;BME280;34640;53.590;10.054;2023-08-31T09:17:04;100284.44;;;16.55;100.00
48824;BME280;34640;53.590;10.054;2023-08-31T09:20:00;100286.13;;;16.23;100.00
48824;BME280;34640;53.590;10.054;2023-08-31T09:22:54;100285.03;;;16.46;100.00
48824;BME280;34640;53.590;10.054;2023-08-31T09:25:47;100288.25;;;16.36;100.00
48824;BME280;34640;53.590;10.054;2023-08-31T09:28:40;100289.75;;;16.58;100.00
48824;BME280;34640;53.590;10.054;2023-08-31T09:31:41;100283.84;;;16.96;100.00
48824;BME280;34640;53.590;10.054;2023-08-31T09:34:39;100288.63;;;17.47;100.00
48824;BME280;34640;53.590;10.054;2023-08-31T09:37:38;100291.88;;;17.71;100.00
48824;BME280;34640;53.590;10.054;2023-08-31T09:40:36;100291.81;;;17.68;100.00
48824;BME280;34640;53.590;10.054;2023-08-31T09:43:34;100289.94;;;17.64;100.00
48824;BME280;34640;53.590;10.054;2023-08-31T09:46:26;100279.00;;;17.13;100.00
48824;BME280;34640;53.590;10.054;2023-08-31T09:49:17;100289.88;;;17.27;100.00
48824;BME280;34640;53.590;10.054;2023-08-31T09:52:09;100290.16;;;17.37;100.00
48824;BME280;34640;53.590;10.054;2023-08-31T09:55:10;100285.25;;;17.17;100.00
48824;BME280;34640;53.590;10.054;2023-08-31T09:58:02;100295.56;;;17.09;100.00
48824;BME280;34640;53.590;10.054;2023-08-31T10:01:05;100286.63;;;17.02;100.00
48824;BME280;34640;53.590;10.054;2023-08-31T10:04:19;100286.91;;;17.49;100.00
48824;BME280;34640;53.590;10.054;2023-08-31T10:07:10;100294.16;;;17.58;100.00
48824;BME280;34640;53.590;10.054;2023-08-31T10:10:05;100285.97;;;17.46;100.00
48824;BME280;34640;53.590;10.054;2023-08-31T10:12:59;100290.44;;;17.50;100.00
48824;BME280;34640;53.590;10.054;2023-08-31T10:15:57;100289.81;;;17.60;100.00
48824;BME280;34640;53.590;10.054;2023-08-31T10:18:48;100293.41;;;17.63;100.00
48824;BME280;34640;53.590;10.054;2023-08-31T10:21:40;100301.06;;;17.89;100.00
48824;BME280;34640;53.590;10.054;2023-08-31T10:27:44;100298.81;;;17.68;100.00
48824;BME280;34640;53.590;10.054;2023-08-31T10:30:41;100296.59;;;17.85;100.00
48824;BME280;34640;53.590;10.054;2023-08-31T10:33:33;100296.84;;;17.97;100.00
48824;BME280;34640;53.590;10.054;2023-08-31T10:36:34;100290.75;;;17.99;100.00
48824;BME280;34640;53.590;10.054;2023-08-31T10:39:26;100288.69;;;18.25;100.00
48824;BME280;34640;53.590;10.054;2023-08-31T10:42:40;100296.06;;;18.43;100.00
48824;BME280;34640;53.590;10.054;2023-08-31T10:45:44;100295.16;;;18.41;100.00
48824;BME280;34640;53.590;10.054;2023-08-31T10:48:49;100294.34;;;18.44;100.00
48824;BME280;34640;53.590;10.054;2023-08-31T10:51:48;100294.00;;;18.68;100.00
48824;BME280;34640;53.590;10.054;2023-08-31T10:54:40;100295.16;;;18.41;100.00
48824;BME280;34640;53.590;10.054;2023-08-31T10:57:32;100294.25;;;18.39;100.00
48824;BME280;34640;53.590;10.054;2023-08-31T11:00:46;100296.66;;;18.28;100.00
48824;BME280;34640;53.590;10.054;2023-08-31T11:03:57;100293.72;;;18.57;100.00
48824;BME280;34640;53.590;10.054;2023-08-31T11:10:06;100293.13;;;18.26;100.00
48824;BME280;34640;53.590;10.054;2023-08-31T11:12:57;100288.75;;;18.28;100.00
48824;BME280;34640;53.590;10.054;2023-08-31T11:15:56;100288.03;;;18.37;100.00
48824;BME280;34640;53.590;10.054;2023-08-31T11:18:47;100290.31;;;18.20;100.00
48824;BME280;34640;53.590;10.054;2023-08-31T11:21:45;100294.81;;;18.24;100.00
48824;BME280;34640;53.590;10.054;2023-08-31T11:24:36;100294.47;;;18.50;100.00
48824;BME280;34640;53.590;10.054;2023-08-31T11:27:29;100290.19;;;18.56;100.00
48824;BME280;34640;53.590;10.054;2023-08-31T11:30:20;100295.91;;;18.76;100.00
48824;BME280;34640;53.590;10.054;2023-08-31T11:33:13;100291.84;;;18.93;100.00
48824;BME280;34640;53.590;10.054;2023-08-31T11:36:12;100297.25;;;19.03;100.00
48824;BME280;34640;53.590;10.054;2023-08-31T11:39:06;100297.00;;;18.87;100.00
48824;BME280;34640;53.590;10.054;2023-08-31T11:41:58;100300.63;;;18.92;100.00
48824;BME280;34640;53.590;10.054;2023-08-31T11:44:50;100304.63;;;18.72;100.00
48824;BME280;34640;53.590;10.054;2023-08-31T11:47:49;100304.97;;;18.47;100.00
48824;BME280;34640;53.590;10.054;2023-08-31T11:50:42;100308.19;;;18.33;100.00
48824;BME280;34640;53.590;10.054;2023-08-31T11:53:35;100309.72;;;18.22;100.00
48824;BME280;34640;53.590;10.054;2023-08-31T11:56:27;100314.63;;;18.06;100.00
48824;BME280;34640;53.590;10.054;2023-08-31T11:59:26;100314.84;;;18.16;100.00
48824;BME280;34640;53.590;10.054;2023-08-31T12:02:24;100309.81;;;18.27;100.00
48824;BME280;34640;53.590;10.054;2023-08-31T12:05:22;100318.38;;;18.17;100.00
48824;BME280;34640;53.590;10.054;2023-08-31T12:08:25;100317.72;;;18.27;100.00
48824;BME280;34640;53.590;10.054;2023-08-31T12:11:23;100317.16;;;18.43;100.00
48824;BME280;34640;53.590;10.054;2023-08-31T12:14:18;100320.09;;;18.57;100.00
48824;BME280;34640;53.590;10.054;2023-08-31T12:17:10;100334.09;;;18.53;100.00
48824;BME280;34640;53.590;10.054;2023-08-31T12:20:05;100325.94;;;18.42;100.00
48824;BME280;34640;53.590;10.054;2023-08-31T12:23:04;100322.50;;;18.45;100.00
48824;BME280;34640;53.590;10.054;2023-08-31T12:26:05;100326.44;;;18.65;100.00
48824;BME280;34640;53.590;10.054;2023-08-31T12:28:57;100334.84;;;18.88;100.00
48824;BME280;34640;53.590;10.054;2023-08-31T12:31:49;100331.44;;;18.95;100.00
48824;BME280;34640;53.590;10.054;2023-08-31T12:34:40;100330.72;;;19.04;100.00
48824;BME280;34640;53.590;10.054;2023-08-31T12:37:38;100330.41;;;18.87;100.00
48824;BME280;34640;53.590;10.054;2023-08-31T12:40:29;100332.34;;;18.53;100.00
48824;BME280;34640;53.590;10.054;2023-08-31T12:43:22;100334.63;;;18.37;100.00
48824;BME280;34640;53.590;10.054;2023-08-31T12:46:13;100361.63;;;18.25;100.00
48824;BME280;34640;53.590;10.054;2023-08-31T12:49:05;100392.09;;;17.43;100.00
48824;BME280;34640;53.590;10.054;2023-08-31T12:52:03;100400.66;;;16.16;100.00
48824;BME280;34640;53.590;10.054;2023-08-31T12:55:01;100417.16;;;15.34;100.00
48824;BME280;34640;53.590;10.054;2023-08-31T12:58:01;100427.94;;;14.48;100.00
48824;BME280;34640;53.590;10.054;2023-08-31T13:01:00;100418.69;;;14.13;100.00
48824;BME280;34640;53.590;10.054;2023-08-31T13:03:52;100422.59;;;13.81;100.00
48824;BME280;34640;53.590;10.054;2023-08-31T13:06:44;100427.97;;;13.63;100.00
48824;BME280;34640;53.590;10.054;2023-08-31T13:09:42;100420.34;;;13.67;100.00
48824;BME280;34640;53.590;10.054;2023-08-31T13:12:42;100424.91;;;13.94;100.00
48824;BME280;34640;53.590;10.054;2023-08-31T13:15:33;100423.38;;;14.21;100.00
48824;BME280;34640;53.590;10.054;2023-08-31T13:18:26;100416.13;;;14.36;100.00
48824;BME280;34640;53.590;10.054;2023-08-31T13:21:18;100420.41;;;14.55;100.00
48824;BME280;34640;53.590;10.054;2023-08-31T13:24:09;100408.16;;;14.78;100.00
48824;BME280;34640;53.590;10.054;2023-08-31T13:27:07;100421.09;;;15.21;100.00
48824;BME280;34640;53.590;10.054;2023-08-31T13:30:05;100415.84;;;15.47;100.00
48824;BME280;34640;53.590;10.054;2023-08-31T13:32:58;100413.72;;;15.61;100.00
48824;BME280;34640;53.590;10.054;2023-08-31T13:35:51;100406.81;;;15.63;100.00
48824;BME280;34640;53.590;10.054;2023-08-31T13:38:44;100402.50;;;15.65;100.00
48824;BME280;34640;53.590;10.054;2023-08-31T13:41:35;100397.44;;;15.71;100.00
48824;BME280;34640;53.590;10.054;2023-08-31T13:44:27;100401.47;;;15.86;100.00
48824;BME280;34640;53.590;10.054;2023-08-31T13:47:18;100391.06;;;15.89;100.00
48824;BME280;34640;53.590;10.054;2023-08-31T13:50:10;100390.72;;;16.06;100.00
48824;BME280;34640;53.590;10.054;2023-08-31T13:53:10;100393.00;;;16.24;100.00
48824;BME280;34640;53.590;10.054;2023-08-31T13:56:08;100386.53;;;16.41;100.00
48824;BME280;34640;53.590;10.054;2023-08-31T13:59:00;100385.03;;;16.49;100.00
48824;BME280;34640;53.590;10.054;2023-08-31T14:01:58;100394.25;;;16.65;100.00
48824;BME280;34640;53.590;10.054;2023-08-31T14:04:50;100390.19;;;16.74;100.00
48824;BME280;34640;53.590;10.054;2023-08-31T14:07:42;100391.78;;;16.69;100.00
48824;BME280;34640;53.590;10.054;2023-08-31T14:10:38;100385.50;;;16.94;100.00
48824;BME280;34640;53.590;10.054;2023-08-31T14:13:36;100394.41;;;16.99;100.00
48824;BME280;34640;53.590;10.054;2023-08-31T14:16:34;100379.66;;;17.06;100.00
48824;BME280;34640;53.590;10.054;2023-08-31T14:19:26;100385.56;;;17.29;100.00
48824;BME280;34640;53.590;10.054;2023-08-31T14:22:18;100386.22;;;17.20;100.00
48824;BME280;34640;53.590;10.054;2023-08-31T14:25:09;100388.69;;;17.14;100.00
48824;BME280;34640;53.590;10.054;2023-08-31T14:28:09;100390.47;;;17.15;100.00
48824;BME280;34640;53.590;10.054;2023-08-31T14:31:08;100388.34;;;17.02;100.00
48824;BME280;34640;53.590;10.054;2023-08-31T14:33:59;100386.34;;;16.93;100.00
48824;BME280;34640;53.590;10.054;2023-08-31T14:36:51;100393.19;;;16.88;100.00
48824;BME280;34640;53.590;10.054;2023-08-31T14:39:44;100392.06;;;16.78;100.00
48824;BME280;34640;53.590;10.054;2023-08-31T14:42:35;100384.63;;;16.94;100.00
48824;BME280;34640;53.590;10.054;2023-08-31T14:45:28;100389.88;;;16.94;100.00
48824;BME280;34640;53.590;10.054;2023-08-31T14:48:19;100383.97;;;17.02;100.00
48824;BME280;34640;53.590;10.054;2023-08-31T14:51:10;100387.78;;;17.14;100.00
48824;BME280;34640;53.590;10.054;2023-08-31T14:54:03;100397.56;;;17.18;100.00
48824;BME280;34640;53.590;10.054;2023-08-31T14:57:01;100392.91;;;17.09;100.00
48824;BME280;34640;53.590;10.054;2023-08-31T15:00:00;100388.63;;;17.13;100.00
48824;BME280;34640;53.590;10.054;2023-08-31T15:03:03;100384.38;;;17.18;100.00